sensor_id;sensor_type;location;lat;lon;timestamp;pressure;altitude;pressure_sealevel;temperature;humidity
53316;BME280;39204;53.896;11.432;2023-05-09T05:16:31;101923.63;;;14.08;88.86
53316;BME280;39204;53.896;11.432;2023-05-09T05:18:02;101929.72;;;13.63;90.06
53316;BME280;39204;53.896;11.432;2023-05-09T05:19:32;101924.44;;;13.79;90.31
53316;BME280;39204;53.896;11.432;2023-05-09T05:21:03;101930.03;;;14.18;88.61
53316;BME280;39204;53.896;11.432;2023-05-09T05:22:33;101921.53;;;14.10;88.83
53316;BME280;39204;53.896;11.432;2023-05-09T05:24:03;101929.66;;;13.86;90.64
53316;BME280;39204;53.896;11.432;2023-05-09T05:25:34;101920.19;;;13.72;89.41
53316;BME280;39204;53.896;11.432;2023-05-09T05:27:04;101918.13;;;13.62;91.16
53316;BME280;39204;53.896;11.432;2023-05-09T05:28:34;101912.06;;;13.95;88.95
53316;BME280;39204;53.896;11.432;2023-05-09T05:30:05;101910.91;;;14.20;87.13
53316;BME280;39204;53.896;11.432;2023-05-09T05:31:36;101912.56;;;13.80;87.20
53316;BME280;39204;53.896;11.432;2023-05-09T05:33:06;101912.06;;;13.95;86.48
53316;BME280;39204;53.896;11.432;2023-05-09T05:34:37;101904.53;;;14.09;88.00
53316;BME280;39204;53.896;11.432;2023-05-09T05:36:08;101914.25;;;14.39;87.81
53316;BME280;39204;53.896;11.432;2023-05-09T05:37:39;101908.34;;;14.25;85.49
53316;BME280;39204;53.896;11.432;2023-05-09T05:39:10;101908.69;;;13.88;87.14
53316;BME280;39204;53.896;11.432;2023-05-09T05:40:40;101908.41;;;14.01;88.47
53316;BME280;39204;53.896;11.432;2023-05-09T05:42:10;101908.66;;;13.36;88.40
53316;BME280;39204;53.896;11.432;2023-05-09T05:43:40;101907.63;;;13.89;88.83
53316;BME280;39204;53.896;11.432;2023-05-09T05:45:11;101905.91;;;13.71;87.18
53316;BME280;39204;53.896;11.432;2023-05-09T05:46:41;101904.97;;;14.18;86.79
53316;BME280;39204;53.896;11.432;2023-05-09T05:48:11;101903.31;;;14.17;86.08
53316;BME280;39204;53.896;11.432;2023-05-09T05:49:41;101909.59;;;14.06;86.57
53316;BME280;39204;53.896;11.432;2023-05-09T05:51:12;101889.94;;;14.50;86.27
53316;BME280;39204;53.896;11.432;2023-05-09T05:52:42;101896.81;;;14.29;85.86
53316;BME280;39204;53.896;11.432;2023-05-09T05:54:12;101899.13;;;14.38;86.26
53316;BME280;39204;53.896;11.432;2023-05-09T05:55:42;101889.00;;;14.16;85.25
53316;BME280;39204;53.896;11.432;2023-05-09T05:57:14;101892.97;;;14.25;85.05
53316;BME280;39204;53.896;11.432;2023-05-09T05:58:45;101881.44;;;14.30;85.64
53316;BME280;39204;53.896;11.432;2023-05-09T06:00:15;101883.50;;;13.83;86.31
53316;BME280;39204;53.896;11.432;2023-05-09T06:01:46;101885.66;;;14.09;86.20
53316;BME280;39204;53.896;11.432;2023-05-09T06:03:16;101877.59;;;14.26;85.73
53316;BME280;39204;53.896;11.432;2023-05-09T06:04:46;101882.03;;;14.03;86.86
53316;BME280;39204;53.896;11.432;2023-05-09T06:06:17;101872.91;;;13.93;86.49
53316;BME280;39204;53.896;11.432;2023-05-09T06:07:47;101877.41;;;14.16;85.82
53316;BME280;39204;53.896;11.432;2023-05-09T06:09:17;101879.41;;;14.37;86.06
53316;BME280;39204;53.896;11.432;2023-05-09T06:10:47;101878.34;;;14.38;85.39
53316;BME280;39204;53.896;11.432;2023-05-09T06:12:18;101881.38;;;14.54;83.69
53316;BME280;39204;53.896;11.432;2023-05-09T06:13:48;101880.34;;;14.43;83.57
53316;BME280;39204;53.896;11.432;2023-05-09T06:15:18;101879.41;;;14.66;83.30
53316;BME280;39204;53.896;11.432;2023-05-09T06:16:49;101872.13;;;14.21;83.45
53316;BME280;39204;53.896;11.432;2023-05-09T06:18:19;101862.22;;;14.26;85.45
53316;BME280;39204;53.896;11.432;2023-05-09T06:19:49;101865.28;;;14.47;84.15
53316;BME280;39204;53.896;11.432;2023-05-09T06:21:20;101856.84;;;13.98;85.38
53316;BME280;39204;53.896;11.432;2023-05-09T06:22:50;101856.00;;;13.97;83.83
53316;BME280;39204;53.896;11.432;2023-05-09T06:24:21;101861.28;;;14.49;85.64
53316;BME280;39204;53.896;11.432;2023-05-09T06:25:51;101854.38;;;14.87;84.18
53316;BME280;39204;53.896;11.432;2023-05-09T06:27:21;101856.94;;;14.48;84.56
53316;BME280;39204;53.896;11.432;2023-05-09T06:28:51;101856.66;;;14.62;85.27
53316;BME280;39204;53.896;11.432;2023-05-09T06:30:22;101851.16;;;14.90;83.68
53316;BME280;39204;53.896;11.432;2023-05-09T06:31:52;101846.00;;;14.72;83.71
53316;BME280;39204;53.896;11.432;2023-05-09T06:33:23;101844.78;;;14.96;85.38
53316;BME280;39204;53.896;11.432;2023-05-09T06:34:53;101842.00;;;14.91;82.33
53316;BME280;39204;53.896;11.432;2023-05-09T06:36:23;101836.44;;;14.64;83.70
53316;BME280;39204;53.896;11.432;2023-05-09T06:37:54;101848.56;;;14.95;84.25
53316;BME280;39204;53.896;11.432;2023-05-09T06:39:24;101845.78;;;14.73;84.94
53316;BME280;39204;53.896;11.432;2023-05-09T06:40:54;101833.09;;;14.91;83.82
53316;BME280;39204;53.896;11.432;2023-05-09T06:42:24;101837.66;;;15.07;83.66
53316;BME280;39204;53.896;11.432;2023-05-09T06:43:55;101837.81;;;15.00;82.95
53316;BME280;39204;53.896;11.432;2023-05-09T06:45:25;101833.25;;;14.67;82.77
53316;BME280;39204;53.896;11.432;2023-05-09T06:46:56;101831.03;;;14.47;84.43
53316;BME280;39204;53.896;11.432;2023-05-09T06:48:26;101826.47;;;14.98;84.29
53316;BME280;39204;53.896;11.432;2023-05-09T06:49:56;101825.44;;;15.05;83.09
53316;BME280;39204;53.896;11.432;2023-05-09T06:51:27;101817.78;;;14.96;82.92
53316;BME280;39204;53.896;11.432;2023-05-09T06:52:57;101818.25;;;15.10;82.58
53316;BME280;39204;53.896;11.432;2023-05-09T06:54:28;101813.38;;;15.51;82.53
53316;BME280;39204;53.896;11.432;2023-05-09T06:55:58;101817.75;;;15.57;80.71
53316;BME280;39204;53.896;11.432;2023-05-09T06:57:29;101815.56;;;15.32;79.90
53316;BME280;39204;53.896;11.432;2023-05-09T06:58:59;101821.50;;;15.73;80.94
53316;BME280;39204;53.896;11.432;2023-05-09T07:00:29;101817.13;;;15.72;79.35
53316;BME280;39204;53.896;11.432;2023-05-09T07:02:00;101811.16;;;15.92;80.45
53316;BME280;39204;53.896;11.432;2023-05-09T07:03:30;101816.28;;;15.93;80.00
53316;BME280;39204;53.896;11.432;2023-05-09T07:05:00;101809.34;;;15.76;79.17
53316;BME280;39204;53.896;11.432;2023-05-09T07:06:31;101811.66;;;16.16;78.05
53316;BME280;39204;53.896;11.432;2023-05-09T07:08:02;101816.00;;;15.90;76.26
53316;BME280;39204;53.896;11.432;2023-05-09T07:09:33;101804.25;;;16.38;78.19
53316;BME280;39204;53.896;11.432;2023-05-09T07:11:03;101814.78;;;16.03;76.42
53316;BME280;39204;53.896;11.432;2023-05-09T07:12:34;101818.16;;;16.20;77.26
53316;BME280;39204;53.896;11.432;2023-05-09T07:14:04;101812.09;;;16.35;77.98
53316;BME280;39204;53.896;11.432;2023-05-09T07:15:35;101813.09;;;16.61;77.53
53316;BME280;39204;53.896;11.432;2023-05-09T07:17:05;101799.06;;;16.64;75.65
53316;BME280;39204;53.896;11.432;2023-05-09T07:18:35;101800.31;;;16.19;76.47
53316;BME280;39204;53.896;11.432;2023-05-09T07:20:06;101809.16;;;16.41;76.54
53316;BME280;39204;53.896;11.432;2023-05-09T07:21:36;101802.97;;;16.46;76.07
53316;BME280;39204;53.896;11.432;2023-05-09T07:23:07;101797.63;;;16.51;75.47
53316;BME280;39204;53.896;11.432;2023-05-09T07:24:37;101806.84;;;16.23;76.03
53316;BME280;39204;53.896;11.432;2023-05-09T07:26:07;101796.19;;;16.43;76.75
53316;BME280;39204;53.896;11.432;2023-05-09T07:27:38;101792.34;;;16.72;76.00
53316;BME280;39204;53.896;11.432;2023-05-09T07:29:08;101795.75;;;16.94;75.84
53316;BME280;39204;53.896;11.432;2023-05-09T07:30:38;101794.69;;;16.58;75.56
53316;BME280;39204;53.896;11.432;2023-05-09T07:32:08;101792.72;;;16.48;76.58
53316;BME280;39204;53.896;11.432;2023-05-09T07:33:39;101786.66;;;17.10;75.76
53316;BME280;39204;53.896;11.432;2023-05-09T07:35:09;101781.81;;;16.75;74.30
53316;BME280;39204;53.896;11.432;2023-05-09T07:36:40;101782.44;;;17.40;75.10
53316;BME280;39204;53.896;11.432;2023-05-09T07:38:10;101776.03;;;16.99;75.38
53316;BME280;39204;53.896;11.432;2023-05-09T07:39:41;101777.50;;;16.79;71.88
53316;BME280;39204;53.896;11.432;2023-05-09T07:41:11;101778.34;;;17.32;75.56
53316;BME280;39204;53.896;11.432;2023-05-09T07:42:41;101775.38;;;17.39;73.96
53316;BME280;39204;53.896;11.432;2023-05-09T07:44:18;101771.91;;;16.91;72.20
53316;BME280;39204;53.896;11.432;2023-05-09T07:45:48;101770.03;;;16.54;73.60
53316;BME280;39204;53.896;11.432;2023-05-09T07:47:19;101764.19;;;16.73;75.73
53316;BME280;39204;53.896;11.432;2023-05-09T07:48:49;101772.06;;;17.27;73.07
53316;BME280;39204;53.896;11.432;2023-05-09T07:50:19;101765.84;;;17.26;73.52
53316;BME280;39204;53.896;11.432;2023-05-09T07:51:50;101753.44;;;17.40;72.99
53316;BME280;39204;53.896;11.432;2023-05-09T07:53:20;101758.31;;;17.54;73.50
53316;BME280;39204;53.896;11.432;2023-05-09T07:54:50;101759.13;;;17.44;71.12
53316;BME280;39204;53.896;11.432;2023-05-09T07:56:21;101762.91;;;17.38;70.62
53316;BME280;39204;53.896;11.432;2023-05-09T07:57:55;101759.31;;;17.17;73.23
53316;BME280;39204;53.896;11.432;2023-05-09T07:59:25;101755.66;;;17.64;72.58
53316;BME280;39204;53.896;11.432;2023-05-09T08:00:58;101748.13;;;17.81;70.16
53316;BME280;39204;53.896;11.432;2023-05-09T08:02:28;101751.66;;;17.82;72.54
53316;BME280;39204;53.896;11.432;2023-05-09T08:03:59;101749.22;;;17.85;71.12
53316;BME280;39204;53.896;11.432;2023-05-09T08:05:29;101750.47;;;17.47;69.64
53316;BME280;39204;53.896;11.432;2023-05-09T08:06:59;101747.19;;;17.45;71.08
53316;BME280;39204;53.896;11.432;2023-05-09T08:08:33;101735.66;;;17.80;71.77
53316;BME280;39204;53.896;11.432;2023-05-09T08:10:03;101748.13;;;17.81;69.60
53316;BME280;39204;53.896;11.432;2023-05-09T08:11:34;101740.22;;;17.70;69.38
53316;BME280;39204;53.896;11.432;2023-05-09T08:13:05;101733.75;;;17.96;69.79
53316;BME280;39204;53.896;11.432;2023-05-09T08:14:35;101736.75;;;17.84;68.75
53316;BME280;39204;53.896;11.432;2023-05-09T08:16:05;101739.75;;;18.03;69.89
53316;BME280;39204;53.896;11.432;2023-05-09T08:17:36;101734.56;;;17.76;69.23
53316;BME280;39204;53.896;11.432;2023-05-09T08:19:06;101727.50;;;17.80;70.34
53316;BME280;39204;53.896;11.432;2023-05-09T08:20:36;101725.34;;;17.77;68.86
53316;BME280;39204;53.896;11.432;2023-05-09T08:22:07;101719.09;;;17.92;68.01
53316;BME280;39204;53.896;11.432;2023-05-09T08:23:37;101716.91;;;17.74;68.40
53316;BME280;39204;53.896;11.432;2023-05-09T08:25:08;101722.09;;;18.11;68.46
53316;BME280;39204;53.896;11.432;2023-05-09T08:26:38;101720.22;;;18.06;68.80
53316;BME280;39204;53.896;11.432;2023-05-09T08:28:08;101714.78;;;17.96;68.15
53316;BME280;39204;53.896;11.432;2023-05-09T08:29:39;101709.06;;;17.77;67.27
53316;BME280;39204;53.896;11.432;2023-05-09T08:31:09;101711.72;;;17.72;69.23
53316;BME280;39204;53.896;11.432;2023-05-09T08:32:40;101711.78;;;17.98;68.88
53316;BME280;39204;53.896;11.432;2023-05-09T08:34:10;101715.31;;;18.03;68.34
53316;BME280;39204;53.896;11.432;2023-05-09T08:35:40;101713.09;;;17.70;68.19
53316;BME280;39204;53.896;11.432;2023-05-09T08:37:11;101717.44;;;17.65;67.46
53316;BME280;39204;53.896;11.432;2023-05-09T08:38:41;101707.16;;;17.83;68.98
53316;BME280;39204;53.896;11.432;2023-05-09T08:40:11;101714.75;;;17.81;69.00
53316;BME280;39204;53.896;11.432;2023-05-09T08:41:42;101714.75;;;17.86;68.05
53316;BME280;39204;53.896;11.432;2023-05-09T08:43:15;101715.00;;;18.41;68.99
53316;BME280;39204;53.896;11.432;2023-05-09T08:44:47;101715.84;;;17.95;67.56
53316;BME280;39204;53.896;11.432;2023-05-09T08:46:23;101711.22;;;17.75;67.97
53316;BME280;39204;53.896;11.432;2023-05-09T08:47:54;101717.16;;;17.62;68.71
53316;BME280;39204;53.896;11.432;2023-05-09T08:49:25;101713.31;;;17.53;69.78
53316;BME280;39204;53.896;11.432;2023-05-09T08:50:55;101707.94;;;17.58;68.83
53316;BME280;39204;53.896;11.432;2023-05-09T08:52:26;101712.56;;;17.73;69.15
53316;BME280;39204;53.896;11.432;2023-05-09T08:53:58;101716.38;;;17.82;66.12
53316;BME280;39204;53.896;11.432;2023-05-09T08:55:29;101720.44;;;18.20;67.86
53316;BME280;39204;53.896;11.432;2023-05-09T08:56:59;101725.88;;;18.20;67.00
53316;BME280;39204;53.896;11.432;2023-05-09T08:58:30;101726.44;;;18.32;67.32
53316;BME280;39204;53.896;11.432;2023-05-09T09:00:02;101719.63;;;18.35;68.11
53316;BME280;39204;53.896;11.432;2023-05-09T09:01:35;101712.31;;;18.00;67.98
53316;BME280;39204;53.896;11.432;2023-05-09T09:03:06;101712.59;;;17.93;68.44
53316;BME280;39204;53.896;11.432;2023-05-09T09:04:36;101710.69;;;18.09;67.36
53316;BME280;39204;53.896;11.432;2023-05-09T09:06:08;101712.81;;;18.48;67.78
53316;BME280;39204;53.896;11.432;2023-05-09T09:07:39;101714.41;;;18.74;66.76
53316;BME280;39204;53.896;11.432;2023-05-09T09:09:10;101709.66;;;19.10;67.08
53316;BME280;39204;53.896;11.432;2023-05-09T09:10:43;101707.59;;;18.82;66.15
53316;BME280;39204;53.896;11.432;2023-05-09T09:12:16;101700.03;;;18.74;66.11
53316;BME280;39204;53.896;11.432;2023-05-09T09:13:48;101711.44;;;18.60;66.24
53316;BME280;39204;53.896;11.432;2023-05-09T09:15:21;101705.19;;;18.60;65.88
53316;BME280;39204;53.896;11.432;2023-05-09T09:16:53;101695.16;;;18.55;66.56
53316;BME280;39204;53.896;11.432;2023-05-09T09:18:28;101701.41;;;18.51;64.71
53316;BME280;39204;53.896;11.432;2023-05-09T09:20:01;101702.50;;;18.50;65.02
53316;BME280;39204;53.896;11.432;2023-05-09T09:21:33;101691.63;;;18.55;64.56
53316;BME280;39204;53.896;11.432;2023-05-09T09:23:07;101694.88;;;18.62;64.69
53316;BME280;39204;53.896;11.432;2023-05-09T09:24:39;101696.81;;;18.41;63.87
53316;BME280;39204;53.896;11.432;2023-05-09T09:26:09;101695.94;;;18.61;64.71
53316;BME280;39204;53.896;11.432;2023-05-09T09:27:40;101686.53;;;18.23;62.68
53316;BME280;39204;53.896;11.432;2023-05-09T09:29:11;101691.31;;;18.72;64.94
53316;BME280;39204;53.896;11.432;2023-05-09T09:30:43;101691.84;;;18.84;65.07
53316;BME280;39204;53.896;11.432;2023-05-09T09:32:13;101683.97;;;18.88;64.67
53316;BME280;39204;53.896;11.432;2023-05-09T09:33:44;101692.41;;;18.76;61.93
53316;BME280;39204;53.896;11.432;2023-05-09T09:35:14;101683.38;;;18.96;63.63
53316;BME280;39204;53.896;11.432;2023-05-09T09:36:45;101695.22;;;19.15;63.77
53316;BME280;39204;53.896;11.432;2023-05-09T09:38:18;101682.03;;;18.83;63.00
53316;BME280;39204;53.896;11.432;2023-05-09T09:39:53;101680.63;;;19.01;62.21
53316;BME280;39204;53.896;11.432;2023-05-09T09:41:36;101684.66;;;19.08;63.80
53316;BME280;39204;53.896;11.432;2023-05-09T09:43:06;101676.78;;;19.07;61.98
53316;BME280;39204;53.896;11.432;2023-05-09T09:44:37;101678.16;;;19.04;63.33
53316;BME280;39204;53.896;11.432;2023-05-09T09:46:07;101683.97;;;18.88;61.86
53316;BME280;39204;53.896;11.432;2023-05-09T09:47:39;101675.81;;;18.82;62.36
53316;BME280;39204;53.896;11.432;2023-05-09T09:49:11;101680.66;;;18.91;61.63
53316;BME280;39204;53.896;11.432;2023-05-09T09:50:41;101664.44;;;19.30;62.46
53316;BME280;39204;53.896;11.432;2023-05-09T09:52:21;101674.41;;;19.45;62.72
53316;BME280;39204;53.896;11.432;2023-05-09T09:53:51;101665.13;;;19.51;60.58
53316;BME280;39204;53.896;11.432;2023-05-09T09:55:23;101659.28;;;19.73;61.24
53316;BME280;39204;53.896;11.432;2023-05-09T09:56:54;101660.59;;;19.36;61.59
53316;BME280;39204;53.896;11.432;2023-05-09T09:58:25;101665.22;;;19.30;59.58
53316;BME280;39204;53.896;11.432;2023-05-09T09:59:59;101651.44;;;19.17;60.02
53316;BME280;39204;53.896;11.432;2023-05-09T10:01:30;101661.66;;;19.40;59.97
53316;BME280;39204;53.896;11.432;2023-05-09T10:03:00;101652.28;;;19.17;59.63
53316;BME280;39204;53.896;11.432;2023-05-09T10:04:32;101649.09;;;19.00;59.22
53316;BME280;39204;53.896;11.432;2023-05-09T10:06:03;101648.50;;;19.08;60.09
53316;BME280;39204;53.896;11.432;2023-05-09T10:07:34;101650.41;;;19.07;60.95
53316;BME280;39204;53.896;11.432;2023-05-09T10:09:04;101650.78;;;19.40;61.22
53316;BME280;39204;53.896;11.432;2023-05-09T10:10:36;101642.56;;;19.45;60.12
53316;BME280;39204;53.896;11.432;2023-05-09T10:12:07;101642.31;;;19.81;59.44
53316;BME280;39204;53.896;11.432;2023-05-09T10:13:37;101633.28;;;19.86;58.16
53316;BME280;39204;53.896;11.432;2023-05-09T10:15:09;101640.41;;;19.81;58.93
53316;BME280;39204;53.896;11.432;2023-05-09T10:16:39;101629.03;;;19.74;58.56
53316;BME280;39204;53.896;11.432;2023-05-09T10:18:12;101638.56;;;19.77;60.19
53316;BME280;39204;53.896;11.432;2023-05-09T10:19:49;101619.50;;;19.77;58.50
53316;BME280;39204;53.896;11.432;2023-05-09T10:21:20;101631.56;;;19.66;56.82
53316;BME280;39204;53.896;11.432;2023-05-09T10:22:55;101632.75;;;19.83;57.98
53316;BME280;39204;53.896;11.432;2023-05-09T10:24:29;101628.47;;;19.77;55.99
53316;BME280;39204;53.896;11.432;2023-05-09T10:27:36;101623.81;;;19.44;56.68
53316;BME280;39204;53.896;11.432;2023-05-09T10:29:09;101613.56;;;19.30;56.74
53316;BME280;39204;53.896;11.432;2023-05-09T10:30:58;101628.38;;;19.14;55.41
53316;BME280;39204;53.896;11.432;2023-05-09T10:32:53;101618.13;;;19.40;57.63
53316;BME280;39204;53.896;11.432;2023-05-09T10:34:28;101616.47;;;19.39;56.40
53316;BME280;39204;53.896;11.432;2023-05-09T10:36:01;101612.97;;;19.39;54.39
53316;BME280;39204;53.896;11.432;2023-05-09T10:37:32;101612.88;;;19.49;56.18
53316;BME280;39204;53.896;11.432;2023-05-09T10:39:03;101618.94;;;19.41;54.84
53316;BME280;39204;53.896;11.432;2023-05-09T10:40:33;101618.75;;;19.27;53.99
53316;BME280;39204;53.896;11.432;2023-05-09T10:42:04;101619.47;;;18.98;53.24
53316;BME280;39204;53.896;11.432;2023-05-09T10:43:35;101613.06;;;19.23;55.15
53316;BME280;39204;53.896;11.432;2023-05-09T10:45:06;101604.25;;;19.42;54.18
53316;BME280;39204;53.896;11.432;2023-05-09T10:46:38;101605.03;;;19.47;55.75
53316;BME280;39204;53.896;11.432;2023-05-09T10:48:10;101603.97;;;19.77;56.09
53316;BME280;39204;53.896;11.432;2023-05-09T10:49:41;101603.63;;;19.50;55.12
53316;BME280;39204;53.896;11.432;2023-05-09T10:51:12;101595.69;;;19.58;54.04
53316;BME280;39204;53.896;11.432;2023-05-09T10:54:35;101590.56;;;19.52;54.51
53316;BME280;39204;53.896;11.432;2023-05-09T10:56:06;101597.88;;;19.56;55.97
53316;BME280;39204;53.896;11.432;2023-05-09T10:57:37;101588.94;;;19.51;53.96
53316;BME280;39204;53.896;11.432;2023-05-09T10:59:32;101587.59;;;19.14;54.14
53316;BME280;39204;53.896;11.432;2023-05-09T11:01:04;101597.31;;;19.20;53.36
53316;BME280;39204;53.896;11.432;2023-05-09T11:02:34;101585.88;;;19.23;53.13
53316;BME280;39204;53.896;11.432;2023-05-09T11:04:12;101587.34;;;19.45;55.04
53316;BME280;39204;53.896;11.432;2023-05-09T11:05:44;101567.56;;;19.73;54.83
53316;BME280;39204;53.896;11.432;2023-05-09T11:07:23;101569.50;;;19.68;54.62
53316;BME280;39204;53.896;11.432;2023-05-09T11:08:54;101563.25;;;19.67;52.80
53316;BME280;39204;53.896;11.432;2023-05-09T11:10:24;101571.09;;;19.74;53.44
53316;BME280;39204;53.896;11.432;2023-05-09T11:11:57;101563.66;;;19.79;53.69
53316;BME280;39204;53.896;11.432;2023-05-09T11:13:35;101552.38;;;19.67;50.80
53316;BME280;39204;53.896;11.432;2023-05-09T11:15:07;101550.13;;;19.74;52.02
53316;BME280;39204;53.896;11.432;2023-05-09T11:16:56;101548.84;;;19.67;52.74
53316;BME280;39204;53.896;11.432;2023-05-09T11:18:27;101543.25;;;19.82;54.32
53316;BME280;39204;53.896;11.432;2023-05-09T11:20:05;101542.69;;;19.51;53.24
53316;BME280;39204;53.896;11.432;2023-05-09T11:21:36;101533.13;;;19.88;53.94
53316;BME280;39204;53.896;11.432;2023-05-09T11:23:07;101537.34;;;19.99;52.33
53316;BME280;39204;53.896;11.432;2023-05-09T11:24:43;101554.66;;;19.84;49.69
53316;BME280;39204;53.896;11.432;2023-05-09T11:26:14;101546.59;;;19.74;48.17
53316;BME280;39204;53.896;11.432;2023-05-09T11:27:47;101531.53;;;20.05;51.88
53316;BME280;39204;53.896;11.432;2023-05-09T11:29:18;101535.41;;;20.23;51.19
53316;BME280;39204;53.896;11.432;2023-05-09T11:30:49;101537.81;;;20.06;49.81
53316;BME280;39204;53.896;11.432;2023-05-09T11:32:21;101525.25;;;20.10;50.38
53316;BME280;39204;53.896;11.432;2023-05-09T11:34:00;101523.69;;;20.04;50.93
53316;BME280;39204;53.896;11.432;2023-05-09T11:35:36;101527.94;;;19.86;51.11
53316;BME280;39204;53.896;11.432;2023-05-09T11:37:08;101536.41;;;19.85;49.51
53316;BME280;39204;53.896;11.432;2023-05-09T11:38:40;101540.69;;;19.62;46.90
53316;BME280;39204;53.896;11.432;2023-05-09T11:40:13;101520.53;;;19.68;47.76
53316;BME280;39204;53.896;11.432;2023-05-09T11:41:47;101516.41;;;19.41;44.67
53316;BME280;39204;53.896;11.432;2023-05-09T11:43:17;101527.47;;;19.50;46.54
53316;BME280;39204;53.896;11.432;2023-05-09T11:44:48;101525.94;;;19.73;45.81
53316;BME280;39204;53.896;11.432;2023-05-09T11:46:19;101526.16;;;19.76;47.53
53316;BME280;39204;53.896;11.432;2023-05-09T11:47:50;101511.56;;;19.67;47.82
53316;BME280;39204;53.896;11.432;2023-05-09T11:49:20;101513.09;;;20.02;47.88
53316;BME280;39204;53.896;11.432;2023-05-09T11:50:51;101512.53;;;19.47;45.58
53316;BME280;39204;53.896;11.432;2023-05-09T11:52:21;101503.28;;;19.77;45.77
53316;BME280;39204;53.896;11.432;2023-05-09T11:53:51;101506.41;;;19.66;46.03
53316;BME280;39204;53.896;11.432;2023-05-09T11:55:23;101499.56;;;19.68;46.12
53316;BME280;39204;53.896;11.432;2023-05-09T11:56:58;101499.81;;;19.96;46.72
53316;BME280;39204;53.896;11.432;2023-05-09T11:58:29;101501.91;;;20.04;45.51
53316;BME280;39204;53.896;11.432;2023-05-09T12:00:00;101500.81;;;19.81;45.36
53316;BME280;39204;53.896;11.432;2023-05-09T12:01:31;101500.22;;;19.55;42.20
53316;BME280;39204;53.896;11.432;2023-05-09T12:03:04;101489.03;;;19.86;43.67
53316;BME280;39204;53.896;11.432;2023-05-09T12:04:35;101493.44;;;19.81;44.18
53316;BME280;39204;53.896;11.432;2023-05-09T12:06:05;101493.50;;;20.00;44.60
53316;BME280;39204;53.896;11.432;2023-05-09T12:07:36;101477.97;;;20.01;42.62
53316;BME280;39204;53.896;11.432;2023-05-09T12:09:08;101482.25;;;20.07;44.09
53316;BME280;39204;53.896;11.432;2023-05-09T12:10:39;101484.13;;;20.30;43.96
53316;BME280;39204;53.896;11.432;2023-05-09T12:12:10;101483.94;;;20.03;42.66
53316;BME280;39204;53.896;11.432;2023-05-09T12:13:45;101478.44;;;20.08;42.80
53316;BME280;39204;53.896;11.432;2023-05-09T12:15:17;101478.53;;;20.22;41.81
53316;BME280;39204;53.896;11.432;2023-05-09T12:16:47;101473.97;;;20.17;41.92
53316;BME280;39204;53.896;11.432;2023-05-09T12:18:17;101472.97;;;20.32;43.72
53316;BME280;39204;53.896;11.432;2023-05-09T12:19:48;101467.56;;;20.27;43.10
53316;BME280;39204;53.896;11.432;2023-05-09T12:21:18;101465.06;;;20.30;42.29
53316;BME280;39204;53.896;11.432;2023-05-09T12:22:52;101456.00;;;20.35;42.39
53316;BME280;39204;53.896;11.432;2023-05-09T12:24:27;101466.00;;;20.21;41.97
53316;BME280;39204;53.896;11.432;2023-05-09T12:25:57;101455.34;;;19.81;40.96
53316;BME280;39204;53.896;11.432;2023-05-09T12:27:28;101463.84;;;19.75;40.28
53316;BME280;39204;53.896;11.432;2023-05-09T12:28:59;101439.19;;;19.66;41.24
53316;BME280;39204;53.896;11.432;2023-05-09T12:30:30;101457.84;;;19.78;39.60
53316;BME280;39204;53.896;11.432;2023-05-09T12:32:00;101450.00;;;19.71;38.82
53316;BME280;39204;53.896;11.432;2023-05-09T12:33:31;101446.47;;;19.95;40.64
53316;BME280;39204;53.896;11.432;2023-05-09T12:35:01;101442.41;;;19.68;38.42
53316;BME280;39204;53.896;11.432;2023-05-09T12:36:33;101445.38;;;19.96;40.13
53316;BME280;39204;53.896;11.432;2023-05-09T12:38:04;101443.03;;;20.08;39.12
53316;BME280;39204;53.896;11.432;2023-05-09T12:39:34;101438.22;;;19.81;38.70
53316;BME280;39204;53.896;11.432;2023-05-09T12:41:06;101439.94;;;19.72;41.89
53316;BME280;39204;53.896;11.432;2023-05-09T12:42:38;101445.59;;;19.99;40.77
53316;BME280;39204;53.896;11.432;2023-05-09T12:44:08;101443.00;;;19.89;40.38
53316;BME280;39204;53.896;11.432;2023-05-09T12:45:39;101448.91;;;19.96;39.28
53316;BME280;39204;53.896;11.432;2023-05-09T12:47:11;101427.41;;;19.95;38.50
53316;BME280;39204;53.896;11.432;2023-05-09T12:48:42;101430.69;;;19.73;38.31
53316;BME280;39204;53.896;11.432;2023-05-09T12:50:13;101414.59;;;19.76;39.19
53316;BME280;39204;53.896;11.432;2023-05-09T12:51:47;101424.28;;;20.06;40.24
53316;BME280;39204;53.896;11.432;2023-05-09T12:53:26;101419.97;;;19.81;37.43
53316;BME280;39204;53.896;11.432;2023-05-09T12:55:10;101417.50;;;19.56;38.14
53316;BME280;39204;53.896;11.432;2023-05-09T12:56:41;101422.56;;;19.68;38.94
53316;BME280;39204;53.896;11.432;2023-05-09T12:58:13;101409.22;;;19.90;39.21
53316;BME280;39204;53.896;11.432;2023-05-09T12:59:43;101412.13;;;19.99;40.56
53316;BME280;39204;53.896;11.432;2023-05-09T13:01:14;101407.09;;;19.87;40.45
53316;BME280;39204;53.896;11.432;2023-05-09T13:02:44;101406.13;;;19.78;40.19
53316;BME280;39204;53.896;11.432;2023-05-09T13:04:18;101394.44;;;19.77;38.75
53316;BME280;39204;53.896;11.432;2023-05-09T13:05:57;101399.91;;;19.72;38.42
53316;BME280;39204;53.896;11.432;2023-05-09T13:07:27;101390.94;;;19.96;39.98
53316;BME280;39204;53.896;11.432;2023-05-09T13:08:59;101400.19;;;19.95;38.04
53316;BME280;39204;53.896;11.432;2023-05-09T13:10:30;101390.91;;;19.77;38.87
53316;BME280;39204;53.896;11.432;2023-05-09T13:12:01;101384.53;;;20.05;39.24